Ana Sayfa
METAR-TAF:

METAR-TAF

Havaalanları :

Hartum, Sudan

Enlem: 15-36N, Boylam: 032-33E, yükseklik: 382 m

Güncel hava durumu gözlemi

Rapor saat 08:00 UTC de 31 dakika önce yapıldı.
Rüzgar batı/güneybatıdan 10 kt
Sıcaklık 33°C
Nem 36%
Basınç 1012 hPa
Görüş mesafesi 10 km veya daha fazla
1500 m altında bulut yok ve kümülonimbus yok

METAR: HSSS 200800Z 24010KT CAVOK 33/16 Q1012 NOSIG

Saat: 11:31 (08:31 UTC)

Tahmin

Rapor saat 05:00 UTC de 3 saat ve 31 dakika önce yapıldı.
Ayın 20'si saat 06 UTC'den ayın 21'si saat 12 UTC'ye kadar geçerli Tahmin
Rüzgar güney/güneybatıdan 12 kt ve 22 kt'a kadar ani rüzgarlar
Görüş mesafesi 10 km veya daha fazla
4000 ft yükseklikte az bulutlu
14000 ft yükseklikte parçalı çok bulutlu
Olasılık 30% :
Geçici
ayın 20'si saat 06 UTC'den ayın 20'si saat 09 UTC'ye kadar
Görüş mesafesi: 6000 m
14000 ft yükseklikte parçalı çok bulutlu
sağanak yağmurlar

TAF: HSSS 200500Z 2006/2112 20012G22KT 9999 FEW040 BKN140 PROB30 TEMPO 2006/2009 6000 SHRA BKN140

4.000'den fazla havaalanı için hava durumu gözlemleri ve tahminleri (METAR ve TAF raporları).

Kullanılabilir istasyonlar harita üzerinde sarı ve kırmızı noktalarla gösterilir.

İstasyonun adını görmek için fareyi noktanın üzerinde gezdirin.

Sonrasında hava gözlem ve tahminlerini görmek için tıklayın.

Haritayı değiştirmek için: yaklaştırmak için siyah artı işaretli yeşil düğmeye ve uzaklaştırmak için de eksi işaretli düğmeye hızla tıklayın; bitişik haritalar için yeşil okları kullanın.


METAR-TAF: